Time;durP1;ratioP1;P1;durP2;ratioP2;P2;SDS_P1;SDS_P2;PMS_P1;PMS_P2;Temp;Humidity;BMP_temperature;BMP_pressure;BME280_temperature;BME280_humidity;BME280_pressure;Samples;Min_cycle;Max_cycle;Signal;HPM_P1;HPM_P2
2021/04/20 00:04:09;;;;;;;54.35;33.92;;;;;;;8.32;100.00;101849.94;9739882;30;20499;-79
2021/04/20 00:09:11;;;;;;;56.35;35.97;;;;;;;8.22;100.00;101844.91;9778623;30;20052;-77
2021/04/20 00:14:13;;;;;;;53.40;36.57;;;;;;;8.05;100.00;101835.72;9759081;30;20057;-78
2021/04/20 00:19:13;;;;;;;54.97;36.60;;;;;;;7.95;100.00;101825.28;9754199;30;20193;-77
2021/04/20 00:24:14;;;;;;;56.65;36.85;;;;;;;7.99;100.00;101842.38;9770162;30;20128;-78
2021/04/20 00:29:15;;;;;;;51.85;35.35;;;;;;;7.92;100.00;101847.44;9784644;30;20116;-78
2021/04/20 00:34:15;;;;;;;55.78;35.70;;;;;;;7.91;100.00;101835.09;9781359;30;20470;-78
2021/04/20 00:39:16;;;;;;;60.00;38.00;;;;;;;7.76;100.00;101822.09;9756551;30;20527;-78
2021/04/20 00:44:16;;;;;;;55.58;36.08;;;;;;;7.66;100.00;101822.41;9776524;30;20056;-78
2021/04/20 00:49:17;;;;;;;53.08;35.00;;;;;;;7.72;100.00;101837.28;9771037;30;20143;-79
2021/04/20 00:54:17;;;;;;;48.85;32.70;;;;;;;7.42;100.00;101796.72;9755004;30;20103;-78
2021/04/20 00:59:19;;;;;;;57.50;37.58;;;;;;;7.64;100.00;101836.16;9762904;30;20053;-78
2021/04/20 01:04:20;;;;;;;53.45;35.95;;;;;;;7.51;100.00;101829.81;9769058;30;20152;-78
2021/04/20 01:09:20;;;;;;;53.22;36.53;;;;;;;7.45;100.00;101823.00;9777138;30;20068;-79
2021/04/20 01:14:21;;;;;;;56.92;36.25;;;;;;;7.42;100.00;101845.16;9747806;30;20123;-78
2021/04/20 01:19:23;;;;;;;58.42;37.33;;;;;;;7.06;100.00;101778.94;9755683;30;20056;-78
2021/04/20 01:24:25;;;;;;;61.63;39.15;;;;;;;6.80;100.00;101754.66;9757382;30;20124;-78
2021/04/20 01:29:26;;;;;;;61.80;39.23;;;;;;;7.19;100.00;101826.41;9757584;30;20126;-78
2021/04/20 01:34:27;;;;;;;59.38;38.00;;;;;;;6.80;100.00;101773.47;9757829;30;20130;-78
2021/04/20 01:39:28;;;;;;;63.92;41.05;;;;;;;7.07;100.00;101818.13;9765324;30;20055;-79
2021/04/20 01:44:28;;;;;;;67.00;43.10;;;;;;;6.96;100.00;101800.69;9769984;30;20048;-78
2021/04/20 01:49:29;;;;;;;64.45;40.65;;;;;;;6.68;100.00;101771.34;9745296;30;20052;-78
2021/04/20 01:54:29;;;;;;;65.28;41.88;;;;;;;6.83;100.00;101785.47;9771270;30;20082;-78
2021/04/20 01:59:30;;;;;;;65.65;41.80;;;;;;;6.88;100.00;101804.16;9762030;30;20052;-77
2021/04/20 02:04:31;;;;;;;65.78;40.78;;;;;;;6.82;100.00;101800.00;9766405;30;20045;-78
2021/04/20 02:09:31;;;;;;;64.97;40.50;;;;;;;6.76;100.00;101797.47;9750261;30;20055;-78
2021/04/20 02:14:34;;;;;;;61.20;40.38;;;;;;;6.60;100.00;101788.22;9783911;30;20044;-78
2021/04/20 02:19:35;;;;;;;67.00;42.97;;;;;;;6.59;100.00;101781.28;9773878;30;20080;-78
2021/04/20 02:24:35;;;;;;;72.65;44.88;;;;;;;5.97;100.00;101689.94;9748905;30;20152;-78
2021/04/20 02:29:38;;;;;;;67.07;39.58;;;;;;;6.58;100.00;101801.16;9774244;30;20076;-78
2021/04/20 02:34:39;;;;;;;65.10;40.15;;;;;;;6.53;100.00;101798.59;9767722;30;20475;-78
2021/04/20 02:39:39;;;;;;;66.53;40.25;;;;;;;6.22;100.00;101761.78;9733381;30;20060;-78
2021/04/20 02:44:40;;;;;;;63.22;40.42;;;;;;;6.43;100.00;101798.88;9770573;30;20044;-79
2021/04/20 02:49:40;;;;;;;64.93;39.40;;;;;;;6.40;100.00;101799.47;9752816;30;20057;-79
2021/04/20 02:54:41;;;;;;;64.82;39.05;;;;;;;6.15;100.00;101772.16;9771928;30;20044;-78
2021/04/20 02:59:42;;;;;;;62.67;38.20;;;;;;;6.25;100.00;101793.38;9749922;30;20835;-78
2021/04/20 03:04:43;;;;;;;59.22;37.55;;;;;;;6.24;100.00;101786.44;9774190;30;20053;-79
2021/04/20 03:09:46;;;;;;;58.50;38.78;;;;;;;6.22;100.00;101788.63;9738330;30;20483;-79
2021/04/20 03:14:48;;;;;;;62.72;38.90;;;;;;;5.92;100.00;101742.59;9753533;30;20063;-79
2021/04/20 03:19:48;;;;;;;62.97;38.88;;;;;;;5.97;100.00;101743.59;9751333;30;20449;-79
2021/04/20 03:25:09;;;;;;;62.58;38.78;;;;;;;6.08;100.00;101767.22;9760935;30;20059;-78
2021/04/20 03:30:10;;;;;;;58.97;36.13;;;;;;;5.96;100.00;101742.81;9759316;30;20064;-78
2021/04/20 03:35:21;;;;;;;65.57;38.87;;;;;;;5.64;100.00;101706.25;9766988;30;20176;-78
2021/04/20 03:40:22;;;;;;;63.17;38.38;;;;;;;5.97;100.00;101748.97;9744982;30;20056;-79
2021/04/20 03:45:30;;;;;;;62.45;39.97;;;;;;;5.99;100.00;101757.53;9729600;30;20107;-81
2021/04/20 03:50:36;;;;;;;62.08;37.58;;;;;;;5.81;100.00;101730.53;9759056;30;20495;-77
2021/04/20 03:55:37;;;;;;;59.88;38.45;;;;;;;5.89;100.00;101759.31;9738063;30;20052;-78
2021/04/20 04:00:37;;;;;;;65.63;40.17;;;;;;;5.55;100.00;101716.13;9775042;30;20419;-78
2021/04/20 04:05:40;;;;;;;60.65;37.55;;;;;;;5.70;100.00;101739.91;9754435;30;20048;-78
2021/04/20 04:10:41;;;;;;;59.65;35.70;;;;;;;5.67;100.00;101751.25;9765583;30;20102;-78
2021/04/20 04:15:42;;;;;;;55.67;35.08;;;;;;;5.46;100.00;101746.34;9734870;30;20067;-79
2021/04/20 04:20:42;;;;;;;54.22;34.70;;;;;;;5.58;100.00;101750.41;9757592;30;20057;-77
2021/04/20 04:26:02;;;;;;;56.53;35.58;;;;;;;5.14;100.00;101701.72;9778808;30;20059;-77
2021/04/20 04:31:05;;;;;;;58.47;35.30;;;;;;;4.95;100.00;101674.28;9773713;30;22158;-78
2021/04/20 04:36:09;;;;;;;61.65;36.55;;;;;;;5.28;100.00;101731.19;9772674;30;20484;-77
2021/04/20 04:41:09;;;;;;;60.42;37.17;;;;;;;5.37;100.00;101742.00;9750770;30;20084;-77
2021/04/20 04:46:10;;;;;;;62.15;39.92;;;;;;;5.48;100.00;101770.97;9717207;30;20130;-78
2021/04/20 04:51:11;;;;;;;63.97;40.25;;;;;;;5.41;100.00;101754.50;9772929;30;20107;-80
2021/04/20 04:56:12;;;;;;;65.00;39.92;;;;;;;5.18;100.00;101712.66;9764168;30;20068;-79
2021/04/20 05:01:13;;;;;;;63.85;40.83;;;;;;;5.33;100.00;101741.00;9739602;30;20083;-78
2021/04/20 05:06:15;;;;;;;66.60;40.03;;;;;;;5.49;100.00;101777.91;9753537;30;20559;-79
2021/04/20 05:11:16;;;;;;;63.10;39.40;;;;;;;4.96;100.00;101700.78;9743503;30;20140;-78
2021/04/20 05:16:18;;;;;;;77.15;44.60;;;;;;;5.55;100.00;101788.53;9746336;30;20057;-79
2021/04/20 05:21:21;;;;;;;65.75;40.53;;;;;;;5.56;100.00;101772.16;9755125;30;20060;-79
2021/04/20 05:26:22;;;;;;;63.58;39.25;;;;;;;5.54;100.00;101760.13;9754626;30;20175;-78
2021/04/20 05:31:23;;;;;;;66.35;40.25;;;;;;;5.73;100.00;101787.59;9756490;30;20420;-77
2021/04/20 05:36:27;;;;;;;65.45;39.95;;;;;;;5.82;100.00;101775.03;9764526;30;20051;-79
2021/04/20 05:41:30;;;;;;;58.80;38.00;;;;;;;5.01;100.00;101649.75;9764495;30;20057;-80
2021/04/20 05:46:30;;;;;;;64.38;40.42;;;;;;;5.99;100.00;101776.31;9773389;30;20135;-80
2021/04/20 05:51:31;;;;;;;64.65;39.50;;;;;;;5.89;100.00;101753.94;9750314;30;20051;-80
2021/04/20 05:56:32;;;;;;;63.83;39.28;;;;;;;5.98;100.00;101734.47;9758645;30;20045;-80
2021/04/20 06:01:42;;;;;;;73.85;41.63;;;;;;;6.37;100.00;101789.34;9788918;30;20057;-80
2021/04/20 06:06:43;;;;;;;70.38;42.85;;;;;;;6.60;100.00;101798.97;9771337;30;20048;-81
2021/04/20 06:11:44;;;;;;;72.07;43.00;;;;;;;6.69;100.00;101781.00;9737770;30;20064;-79
2021/04/20 06:16:44;;;;;;;63.58;42.17;;;;;;;6.98;100.00;101793.13;9751513;30;20059;-80
2021/04/20 06:21:47;;;;;;;64.53;42.67;;;;;;;7.04;100.00;101781.13;9758313;30;20057;-80
2021/04/20 06:26:52;;;;;;;64.20;42.95;;;;;;;7.41;100.00;101800.53;9750053;30;20056;-79
2021/04/20 06:31:53;;;;;;;71.20;45.08;;;;;;;7.59;100.00;101794.03;9740685;30;20729;-79
2021/04/20 06:36:54;;;;;;;63.95;44.30;;;;;;;7.85;100.00;101798.66;9759241;30;20097;-79
2021/04/20 06:41:56;;;;;;;59.38;40.35;;;;;;;7.95;100.00;101776.81;9751644;30;20052;-80
2021/04/20 06:47:03;;;;;;;67.37;42.77;;;;;;;7.89;100.00;101729.63;9742204;30;20053;-80
2021/04/20 06:52:07;;;;;;;59.05;41.88;;;;;;;8.56;100.00;101792.09;9737855;30;20033;-81
2021/04/20 06:57:09;;;;;;;63.00;42.78;;;;;;;8.83;100.00;101799.75;9762002;30;20472;-80
2021/04/20 07:02:42;;;;;;;61.58;41.35;;;;;;;9.02;100.00;101785.88;9769716;30;20084;-80
2021/04/20 07:08:15;;;;;;;66.72;44.40;;;;;;;9.45;100.00;101792.13;9775104;30;20514;-80
2021/04/20 07:13:22;;;;;;;67.35;44.97;;;;;;;9.82;100.00;101800.44;9776600;30;20094;-81
2021/04/20 07:18:48;;;;;;;69.47;46.00;;;;;;;9.62;99.15;101721.84;9746727;30;20056;-80
2021/04/20 07:24:30;;;;;;;70.30;47.47;;;;;;;10.53;97.95;101786.75;9779727;30;20056;-80
2021/04/20 07:30:00;;;;;;;71.53;49.33;;;;;;;10.00;96.82;101685.75;9769666;30;20242;-81
2021/04/20 07:35:01;;;;;;;68.60;47.72;;;;;;;11.09;95.92;101801.69;9780580;30;20048;-80
2021/04/20 07:40:11;;;;;;;66.65;48.40;;;;;;;12.09;91.21;101799.22;9777636;30;20062;-81
2021/04/20 07:45:33;;;;;;;63.58;46.83;;;;;;;14.43;78.03;101794.34;9761675;30;20144;-81
2021/04/20 07:50:41;;;;;;;54.65;42.47;;;;;;;16.44;65.43;101771.38;9770849;30;20047;-80
2021/04/20 07:55:50;;;;;;;56.53;44.90;;;;;;;17.96;59.08;101773.81;9769835;30;20504;-81
2021/04/20 08:01:02;;;;;;;61.63;46.25;;;;;;;18.82;55.30;101789.56;9764157;30;20053;-80
2021/04/20 08:06:09;;;;;;;56.60;45.67;;;;;;;18.59;54.78;101755.88;9753268;30;20419;-81
2021/04/20 08:11:13;;;;;;;56.30;45.92;;;;;;;19.21;53.91;101778.50;9769363;30;20123;-79
2021/04/20 08:16:27;;;;;;;55.22;46.47;;;;;;;19.65;52.60;101783.44;9785149;30;20045;-81
2021/04/20 08:21:28;;;;;;;54.80;46.08;;;;;;;20.19;51.34;101769.47;9771361;30;20056;-84
2021/04/20 08:26:36;;;;;;;54.05;44.58;;;;;;;20.56;49.04;101737.03;9757011;30;20111;-81
2021/04/20 08:31:47;;;;;;;51.35;42.80;;;;;;;21.07;47.21;101766.38;9749268;30;20045;-83
2021/04/20 08:37:03;;;;;;;51.92;42.63;;;;;;;21.36;46.76;101777.03;9771571;30;20247;-81
2021/04/20 08:42:20;;;;;;;49.40;40.13;;;;;;;21.95;44.91;101751.91;9767959;30;20088;-83
2021/04/20 08:47:26;;;;;;;52.65;42.88;;;;;;;22.06;45.23;101767.47;9760285;30;20406;-84
2021/04/20 08:52:56;;;;;;;50.42;40.90;;;;;;;21.99;44.45;101771.13;9740995;30;20053;-80
2021/04/20 08:58:14;;;;;;;45.08;38.65;;;;;;;21.79;43.75;101765.50;9754972;30;20513;-83
2021/04/20 09:03:15;;;;;;;51.28;39.42;;;;;;;21.55;43.82;101777.63;9764735;30;20053;-83
2021/04/20 09:08:35;;;;;;;44.13;38.47;;;;;;;21.41;43.83;101768.34;9763853;30;20052;-81
2021/04/20 09:13:41;;;;;;;48.78;39.28;;;;;;;21.45;43.97;101741.59;9762390;30;20505;-81
2021/04/20 09:18:43;;;;;;;51.30;38.90;;;;;;;21.82;42.43;101758.41;9743984;30;20048;-82
2021/04/20 09:24:14;;;;;;;48.80;38.45;;;;;;;22.37;42.41;101700.13;9741290;30;20115;-82
2021/04/20 09:29:21;;;;;;;53.53;40.30;;;;;;;22.35;41.71;101713.53;9770865;30;20511;-82
2021/04/20 09:34:25;;;;;;;49.63;37.83;;;;;;;22.71;41.66;101757.00;9767135;30;20068;-82
2021/04/20 09:39:27;;;;;;;51.20;40.00;;;;;;;19.74;46.70;101684.31;9749421;30;20059;-82
2021/04/20 09:44:57;;;;;;;51.17;39.42;;;;;;;18.66;50.48;101759.81;9769424;30;20055;-81
2021/04/20 09:50:14;;;;;;;46.67;35.53;;;;;;;19.49;49.20;101754.94;9742070;30;20135;-83
2021/04/20 09:55:20;;;;;;;46.17;34.85;;;;;;;20.30;45.37;101719.19;9773378;30;20060;-86
2021/04/20 10:00:22;;;;;;;43.13;30.85;;;;;;;20.41;44.02;101769.28;9777350;30;20487;-83
2021/04/20 10:05:45;;;;;;;43.83;32.60;;;;;;;20.69;46.12;101769.09;9770297;30;20057;-83
2021/04/20 10:11:16;;;;;;;39.95;30.35;;;;;;;23.43;39.46;101761.19;9753524;30;20037;-81
2021/04/20 10:16:35;;;;;;;38.78;29.20;;;;;;;23.09;38.49;101765.00;9757152;30;20574;-80
2021/04/20 10:21:54;;;;;;;36.07;25.30;;;;;;;23.99;37.27;101752.88;9769504;30;20145;-80
2021/04/20 10:27:01;;;;;;;33.40;26.35;;;;;;;23.36;37.20;101750.28;9776314;30;20313;-79
2021/04/20 10:32:07;;;;;;;33.35;25.10;;;;;;;21.40;40.15;101738.50;9772528;30;20527;-79
2021/04/20 10:37:09;;;;;;;35.15;25.15;;;;;;;19.64;43.73;101729.00;9774072;30;20422;-80
2021/04/20 10:42:10;;;;;;;44.53;30.17;;;;;;;18.72;48.22;101758.22;9771336;30;20091;-80
2021/04/20 10:47:11;;;;;;;37.17;27.52;;;;;;;19.32;45.84;101718.19;9761200;30;20083;-78
2021/04/20 10:52:13;;;;;;;35.70;26.70;;;;;;;19.35;46.35;101729.13;9737780;30;20056;-79
2021/04/20 10:57:14;;;;;;;35.17;25.80;;;;;;;19.20;46.31;101689.25;9724837;30;20115;-79
2021/04/20 11:02:22;;;;;;;37.90;28.20;;;;;;;18.28;47.76;101647.22;9755931;30;20124;-79
2021/04/20 11:07:32;;;;;;;30.25;23.63;;;;;;;19.60;44.47;101676.13;9753775;30;20127;-79
2021/04/20 11:12:33;;;;;;;35.13;26.30;;;;;;;19.36;45.28;101719.72;9756850;30;20110;-77
2021/04/20 11:17:42;;;;;;;36.50;27.30;;;;;;;18.73;46.89;101721.47;9750697;30;20402;-76
2021/04/20 11:23:09;;;;;;;37.35;25.55;;;;;;;18.46;47.82;101719.16;9773554;30;20076;-77
2021/04/20 11:28:37;;;;;;;35.40;25.25;;;;;;;19.13;45.70;101694.78;9725668;30;20064;-77
2021/04/20 11:33:49;;;;;;;36.30;25.73;;;;;;;19.64;44.84;101668.66;9748489;30;20111;-76
2021/04/20 11:38:59;;;;;;;34.07;25.17;;;;;;;20.09;43.49;101693.47;9755211;30;20064;-77
2021/04/20 11:44:02;;;;;;;36.40;24.80;;;;;;;20.27;43.91;101694.09;9775754;30;20378;-75
2021/04/20 11:49:14;;;;;;;33.28;23.05;;;;;;;20.45;40.95;101644.50;9749802;30;20099;-76
2021/04/20 11:54:19;;;;;;;26.73;20.52;;;;;;;20.97;39.96;101657.31;9760896;30;20048;-75
2021/04/20 11:59:20;;;;;;;29.85;21.80;;;;;;;21.40;39.05;101689.81;9728142;30;20064;-78
2021/04/20 12:04:28;;;;;;;27.67;20.23;;;;;;;21.29;38.93;101683.63;9726482;30;20168;-82
2021/04/20 12:09:33;;;;;;;27.98;20.70;;;;;;;20.95;38.65;101670.66;9742151;30;20511;-80
2021/04/20 12:14:38;;;;;;;34.60;27.40;;;;;;;20.55;41.97;101642.81;9740885;30;20037;-83
2021/04/20 12:19:39;;;;;;;43.13;32.97;;;;;;;19.82;43.89;101630.97;9771311;30;20041;-83
2021/04/20 12:24:40;;;;;;;52.05;39.33;;;;;;;19.56;46.59;101683.59;9767038;30;20061;-81
2021/04/20 12:29:42;;;;;;;43.42;33.10;;;;;;;18.50;48.69;101687.06;9768423;30;20116;-83
2021/04/20 12:34:43;;;;;;;49.83;37.92;;;;;;;18.24;51.12;101679.25;9763885;30;20408;-81
2021/04/20 12:39:48;;;;;;;51.38;38.40;;;;;;;18.12;52.08;101673.00;9762997;30;20049;-78
2021/04/20 12:44:51;;;;;;;53.88;39.33;;;;;;;18.20;51.72;101673.00;9769409;30;20521;-79
2021/04/20 12:49:52;;;;;;;65.82;43.00;;;;;;;17.95;52.63;101630.03;9752384;30;20048;-75
2021/04/20 12:54:58;;;;;;;31.27;23.67;;;;;;;18.41;46.41;101667.50;9763653;30;20053;-75
2021/04/20 13:00:01;;;;;;;46.75;35.30;;;;;;;18.16;51.01;101668.31;9766131;30;20152;-76
2021/04/20 13:05:03;;;;;;;55.65;32.42;;;;;;;18.53;48.25;101609.63;9776298;30;20515;-77
2021/04/20 13:10:05;;;;;;;39.63;28.33;;;;;;;19.23;46.05;101644.59;9776574;30;20060;-77
2021/04/20 13:15:07;;;;;;;40.00;28.05;;;;;;;19.90;44.25;101655.59;9757693;30;20057;-76
2021/04/20 13:20:14;;;;;;;33.50;25.55;;;;;;;20.27;42.69;101658.41;9776083;30;20083;-80
2021/04/20 13:25:15;;;;;;;36.00;25.73;;;;;;;19.79;43.77;101642.72;9760234;30;20523;-83
2021/04/20 13:30:26;;;;;;;37.57;27.10;;;;;;;19.16;43.63;101568.69;9752631;30;22612;-84
2021/04/20 13:35:47;;;;;;;40.22;30.35;;;;;;;19.74;45.44;101634.94;9752233;30;20043;-79
2021/04/20 13:41:00;;;;;;;34.63;24.08;;;;;;;19.71;43.20;101613.78;9777633;30;20060;-81
2021/04/20 13:46:07;;;;;;;35.15;24.60;;;;;;;20.46;42.12;101606.84;9737443;30;20162;-83
2021/04/20 13:51:29;;;;;;;35.92;26.70;;;;;;;20.57;41.79;101610.28;9777883;30;20045;-82
2021/04/20 13:57:31;;;;;;;38.15;28.25;;;;;;;20.08;41.76;101527.22;9742350;30;20133;-79
2021/04/20 14:03:54;;;;;;;;;;;;;;;;;;;;;
2021/04/20 14:10:05;;;;;;;36.47;27.00;;;;;;;20.03;41.95;101620.97;9755886;30;20053;-79
2021/04/20 14:15:56;;;;;;;33.58;26.27;;;;;;;18.94;43.49;101513.22;9780911;30;20064;-78
2021/04/20 14:21:39;;;;;;;;;;;;;;;;;;;;;
2021/04/20 14:26:58;;;;;;;32.50;25.90;;;;;;;19.12;43.97;101556.16;9756459;30;20056;-76
2021/04/20 14:32:02;;;;;;;40.45;31.08;;;;;;;18.79;47.18;101561.06;9764993;30;20049;-76
2021/04/20 14:37:03;;;;;;;45.75;32.47;;;;;;;18.30;48.39;101552.59;9738931;30;20475;-78
2021/04/20 14:42:10;;;;;;;43.50;33.60;;;;;;;18.65;49.04;101605.69;9728353;30;20048;-78
2021/04/20 14:47:18;;;;;;;45.90;34.17;;;;;;;18.54;49.32;101593.97;9722925;30;20048;-77
2021/04/20 14:52:32;;;;;;;44.78;33.67;;;;;;;18.61;50.17;101615.09;9769190;30;20454;-78
2021/04/20 14:57:40;;;;;;;42.22;32.35;;;;;;;18.43;50.20;101615.88;9754375;30;20053;-75
2021/04/20 15:02:42;;;;;;;50.83;34.40;;;;;;;18.03;51.25;101620.63;9732348;30;20522;-77
2021/04/20 15:07:56;;;;;;;48.60;35.30;;;;;;;17.77;51.71;101612.78;9767572;30;20053;-75
2021/04/20 15:13:00;;;;;;;49.00;34.35;;;;;;;17.81;51.47;101602.66;9743539;30;20079;-77
2021/04/20 15:18:07;;;;;;;53.13;40.10;;;;;;;17.74;52.71;101620.59;9770814;30;20056;-77
2021/04/20 15:23:15;;;;;;;51.60;38.47;;;;;;;17.75;52.38;101597.56;9757444;30;20118;-74
2021/04/20 15:28:20;;;;;;;51.90;38.30;;;;;;;17.47;53.96;101583.84;9757488;30;20079;-76
2021/04/20 15:33:25;;;;;;;52.47;39.05;;;;;;;17.65;53.92;101628.38;9770197;30;20130;-75
2021/04/20 15:38:30;;;;;;;54.38;40.85;;;;;;;17.21;54.96;101583.00;9767474;30;20044;-77
2021/04/20 15:43:31;;;;;;;59.45;40.78;;;;;;;17.59;54.71;101607.28;9742439;30;20037;-82
2021/04/20 15:48:41;;;;;;;53.08;40.28;;;;;;;17.41;55.03;101580.72;9749577;30;20507;-77
2021/04/20 15:53:44;;;;;;;51.97;38.97;;;;;;;17.77;54.02;101574.50;9757823;30;20136;-74
2021/04/20 15:58:53;;;;;;;56.25;39.53;;;;;;;18.35;53.01;101608.88;9753686;30;20671;-75
2021/04/20 16:03:54;;;;;;;49.38;37.63;;;;;;;18.32;52.48;101598.69;9755636;30;20127;-78
2021/04/20 16:08:55;;;;;;;52.13;38.40;;;;;;;18.02;52.40;101558.88;9757930;30;20049;-75
2021/04/20 16:13:58;;;;;;;48.15;36.63;;;;;;;18.32;51.86;101615.13;9744328;30;20546;-77
2021/04/20 16:19:01;;;;;;;47.35;34.20;;;;;;;18.29;51.76;101604.97;9756723;30;20064;-76
2021/04/20 16:24:09;;;;;;;43.97;34.17;;;;;;;18.24;52.20;101602.63;9749313;30;20052;-75
2021/04/20 16:29:11;;;;;;;52.60;36.05;;;;;;;18.04;52.35;101562.03;9772259;30;20091;-75
2021/04/20 16:34:12;;;;;;;49.33;35.35;;;;;;;18.54;50.57;101600.22;9761511;30;20103;-75
2021/04/20 16:39:45;;;;;;;48.08;36.88;;;;;;;18.39;50.95;101609.66;9744459;30;20068;-75
2021/04/20 16:45:05;;;;;;;49.15;35.70;;;;;;;18.00;51.61;101572.19;9763380;30;20479;-77
2021/04/20 16:50:28;;;;;;;44.90;34.33;;;;;;;18.39;50.98;101598.72;9782101;30;20048;-78
2021/04/20 16:55:50;;;;;;;43.55;31.95;;;;;;;18.31;50.12;101575.25;9770697;30;20417;-74
2021/04/20 17:00:57;;;;;;;45.00;34.65;;;;;;;18.40;50.12;101611.22;9754538;30;20079;-76
2021/04/20 17:06:12;;;;;;;41.80;31.95;;;;;;;18.36;49.31;101604.94;9753478;30;20045;-75
2021/04/20 17:11:42;;;;;;;40.83;29.00;;;;;;;18.02;49.43;101597.19;9758234;30;20769;-76
2021/04/20 17:16:59;;;;;;;39.42;28.48;;;;;;;17.77;49.80;101599.13;9766406;30;20122;-79
2021/04/20 17:22:25;;;;;;;38.15;28.83;;;;;;;17.54;50.58;101602.97;9764225;30;20080;-80
2021/04/20 17:27:49;;;;;;;37.00;28.25;;;;;;;17.31;51.32;101598.66;9751925;30;20119;-82
2021/04/20 17:33:11;;;;;;;35.90;26.73;;;;;;;17.25;51.73;101600.19;9760514;30;20121;-82
2021/04/20 17:38:28;;;;;;;39.65;29.05;;;;;;;16.63;52.55;101553.94;9752657;30;20063;-79
2021/04/20 17:43:46;;;;;;;39.05;29.38;;;;;;;16.32;53.86;101537.00;9776950;30;20494;-80
2021/04/20 17:49:18;;;;;;;38.22;27.40;;;;;;;16.51;54.24;101584.25;9751364;30;20124;-80
2021/04/20 17:54:25;;;;;;;34.55;25.70;;;;;;;16.42;54.77;101581.88;9729067;30;20087;-74
2021/04/20 17:59:47;;;;;;;36.00;24.35;;;;;;;16.24;54.84;101592.69;9755152;30;20049;-74
2021/04/20 18:05:13;;;;;;;38.20;27.23;;;;;;;16.16;54.86;101596.53;9759448;30;20049;-75
2021/04/20 18:10:20;;;;;;;31.67;24.35;;;;;;;15.76;55.13;101551.81;9767505;30;20049;-74
2021/04/20 18:15:35;;;;;;;35.33;24.48;;;;;;;15.62;55.93;101575.03;9761701;30;20065;-75
2021/04/20 18:20:39;;;;;;;37.90;26.23;;;;;;;15.50;57.45;101616.19;9728303;30;20052;-77
2021/04/20 18:26:10;;;;;;;35.30;26.60;;;;;;;15.14;58.51;101580.38;9762713;30;20049;-76
2021/04/20 18:31:41;;;;;;;40.65;27.42;;;;;;;15.14;58.95;101615.00;9761053;30;20053;-76
2021/04/20 18:37:06;;;;;;;39.65;27.67;;;;;;;14.94;59.05;101622.53;9766811;30;20768;-76
2021/04/20 18:42:13;;;;;;;38.97;28.42;;;;;;;14.72;58.72;101605.94;9762312;30;20116;-75
2021/04/20 18:47:22;;;;;;;38.03;27.75;;;;;;;14.44;59.50;101586.44;9778166;30;20568;-76
2021/04/20 18:53:02;;;;;;;36.50;26.88;;;;;;;14.45;60.67;101634.28;9788660;30;20052;-78
2021/04/20 18:58:14;;;;;;;38.50;28.02;;;;;;;14.24;61.71;101627.34;9770323;30;20076;-75
2021/04/20 19:03:24;;;;;;;38.57;26.90;;;;;;;14.13;61.75;101645.44;9770972;30;20061;-78
2021/04/20 19:08:30;;;;;;;39.80;28.05;;;;;;;13.95;61.63;101643.22;9756806;30;20287;-76
2021/04/20 19:14:13;;;;;;;41.33;29.52;;;;;;;13.83;62.91;101643.41;9772003;30;20045;-77
2021/04/20 19:19:25;;;;;;;40.15;28.02;;;;;;;13.44;63.11;101600.00;9750476;30;20507;-76
2021/04/20 19:24:45;;;;;;;39.35;27.27;;;;;;;13.64;63.30;101651.56;9743042;30;20064;-78
2021/04/20 19:30:08;;;;;;;39.72;28.73;;;;;;;13.62;63.75;101659.31;9747838;30;20045;-79
2021/04/20 19:35:27;;;;;;;42.25;28.65;;;;;;;13.47;63.81;101645.44;9769796;30;20064;-86
2021/04/20 19:40:56;;;;;;;44.35;29.83;;;;;;;13.39;64.40;101668.19;9778746;30;20045;-83
2021/04/20 19:46:02;;;;;;;41.55;29.02;;;;;;;13.32;64.95;101668.03;9785752;30;20040;-77
2021/04/20 19:51:27;;;;;;;43.38;31.38;;;;;;;13.08;64.99;101642.72;9742912;30;20064;-76
2021/04/20 19:56:31;;;;;;;46.65;31.77;;;;;;;12.79;65.18;101613.41;9761561;30;20056;-77
2021/04/20 20:01:34;;;;;;;48.20;33.70;;;;;;;12.62;66.09;101620.78;9745062;30;20087;-75
2021/04/20 20:06:34;;;;;;;46.08;31.98;;;;;;;12.63;65.79;101627.81;9759950;30;20375;-75
2021/04/20 20:11:40;;;;;;;43.55;30.52;;;;;;;12.74;66.57;101665.22;9748013;30;20049;-76
2021/04/20 20:16:41;;;;;;;46.33;31.73;;;;;;;12.37;66.31;101619.44;9739665;30;20053;-76
2021/04/20 20:21:43;;;;;;;46.15;31.67;;;;;;;12.59;66.88;101659.47;9757141;30;20072;-77
2021/04/20 20:26:49;;;;;;;42.53;30.73;;;;;;;12.43;66.91;101639.72;9747340;30;20049;-79
2021/04/20 20:31:56;;;;;;;46.47;31.45;;;;;;;12.79;66.11;101673.09;9754820;30;20040;-77
2021/04/20 20:37:04;;;;;;;46.55;31.75;;;;;;;12.45;66.25;101653.72;9759327;30;20072;-75
2021/04/20 20:42:05;;;;;;;47.10;33.20;;;;;;;11.68;66.82;101551.97;9753669;30;20056;-77
2021/04/20 20:47:11;;;;;;;48.47;33.20;;;;;;;12.44;67.37;101674.66;9756235;30;20049;-74
2021/04/20 20:52:14;;;;;;;50.50;34.20;;;;;;;12.16;67.48;101636.78;9760818;30;20533;-75
2021/04/20 20:57:38;;;;;;;50.30;32.72;;;;;;;12.22;68.39;101662.47;9749954;30;20610;-80
2021/04/20 21:02:39;;;;;;;46.28;30.85;;;;;;;11.79;68.78;101618.03;9763716;30;20063;-81
2021/04/20 21:07:39;;;;;;;49.40;32.90;;;;;;;11.73;68.67;101616.69;9742188;30;20045;-81
2021/04/20 21:12:43;;;;;;;48.95;33.45;;;;;;;11.97;68.84;101671.91;9732047;30;20052;-80
2021/04/20 21:17:46;;;;;;;49.42;34.25;;;;;;;11.90;69.24;101669.00;9761559;30;20499;-81
2021/04/20 21:22:50;;;;;;;43.72;32.47;;;;;;;11.47;70.27;101627.22;9779630;30;20060;-81
2021/04/20 21:27:51;;;;;;;53.30;34.33;;;;;;;11.68;69.79;101664.94;9783555;30;20047;-80
2021/04/20 21:32:53;;;;;;;53.85;35.47;;;;;;;11.26;70.80;101622.81;9777285;30;20072;-80
2021/04/20 21:37:54;;;;;;;49.88;32.58;;;;;;;11.56;71.06;101673.91;9757928;30;20045;-80
2021/04/20 21:42:59;;;;;;;47.03;32.28;;;;;;;11.25;70.77;101621.25;9751943;30;20048;-80
2021/04/20 21:48:05;;;;;;;48.00;33.65;;;;;;;11.15;70.90;101619.81;9724963;30;20517;-79
2021/04/20 21:53:06;;;;;;;49.30;34.33;;;;;;;11.34;72.08;101673.31;9757304;30;20057;-80
2021/04/20 21:58:13;;;;;;;46.17;32.67;;;;;;;10.89;72.31;101620.22;9779003;30;20164;-80
2021/04/20 22:03:24;;;;;;;47.80;31.98;;;;;;;10.90;72.88;101629.91;9765236;30;20440;-80
2021/04/20 22:08:30;;;;;;;49.97;33.45;;;;;;;10.85;72.60;101635.56;9753073;30;20052;-80
2021/04/20 22:13:31;;;;;;;47.75;33.67;;;;;;;10.60;73.42;101617.78;9743650;30;20502;-79
2021/04/20 22:18:36;;;;;;;49.28;33.80;;;;;;;10.47;74.49;101608.91;9768501;30;20067;-79
2021/04/20 22:23:48;;;;;;;52.72;33.55;;;;;;;10.55;74.70;101649.31;9754495;30;20110;-79
2021/04/20 22:28:49;;;;;;;48.88;34.05;;;;;;;10.68;75.44;101679.09;9785796;30;20064;-81
2021/04/20 22:33:51;;;;;;;54.72;35.17;;;;;;;10.37;75.52;101642.56;9757568;30;20053;-80
2021/04/20 22:39:10;;;;;;;53.60;35.72;;;;;;;10.30;76.34;101643.16;9751834;30;20069;-80
2021/04/20 22:44:15;;;;;;;48.75;33.92;;;;;;;10.37;76.49;101675.00;9761289;30;20530;-79
2021/04/20 22:49:21;;;;;;;54.72;36.40;;;;;;;10.29;76.98;101678.63;9765210;30;20140;-80
2021/04/20 22:54:22;;;;;;;53.45;36.17;;;;;;;9.97;77.38;101640.50;9788640;30;20057;-80
2021/04/20 22:59:27;;;;;;;54.28;36.83;;;;;;;10.21;77.85;101682.19;9771600;30;20061;-80
2021/04/20 23:04:28;;;;;;;52.47;35.75;;;;;;;9.83;77.78;101645.41;9739576;30;20056;-80
2021/04/20 23:09:31;;;;;;;53.88;35.85;;;;;;;10.09;78.46;101691.84;9740592;30;20052;-80
2021/04/20 23:14:35;;;;;;;54.30;35.65;;;;;;;9.82;78.71;101654.63;9757446;30;20064;-81
2021/04/20 23:19:36;;;;;;;55.25;36.15;;;;;;;9.37;79.13;101596.00;9769285;30;20119;-80
2021/04/20 23:24:43;;;;;;;53.88;35.65;;;;;;;9.67;79.26;101656.84;9762197;30;20175;-80
2021/04/20 23:30:09;;;;;;;53.63;35.47;;;;;;;9.89;79.63;101687.28;9765524;30;20065;-80